Time;durP1;ratioP1;P1;durP2;ratioP2;P2;SDS_P1;SDS_P2;PMS_P1;PMS_P2;Temp;Humidity;BMP_temperature;BMP_pressure;BME280_temperature;BME280_humidity;BME280_pressure;Samples;Min_cycle;Max_cycle;Signal;HPM_P1;HPM_P2
2022/07/26 08:09:05;;;;;;;;;4.00;4.00;;;;;22.75;52.49;101406.84;5067548;28;45384;-69
2022/07/26 08:11:31;;;;;;;;;3.67;3.67;;;;;22.96;52.75;101410.47;5046230;28;45814;-68
2022/07/26 08:13:57;;;;;;;;;4.00;4.00;;;;;23.25;51.67;101407.56;5053541;28;45215;-69
2022/07/26 08:16:23;;;;;;;;;3.00;3.00;;;;;23.52;51.02;101412.72;5049004;28;45346;-68
2022/07/26 08:18:48;;;;;;;;;4.67;2.00;;;;;23.73;50.26;101410.06;5030924;28;45461;-69
2022/07/26 08:21:14;;;;;;;;;3.00;3.00;;;;;23.84;49.30;101410.50;5035223;28;45584;-70
2022/07/26 08:23:40;;;;;;;;;2.00;2.00;;;;;23.86;49.13;101369.38;5049692;28;45497;-67
2022/07/26 08:26:06;;;;;;;;;2.00;2.00;;;;;24.26;49.11;101404.22;5042166;28;45597;-68
2022/07/26 08:28:31;;;;;;;;;4.00;3.33;;;;;24.41;47.87;101413.38;5048311;28;46166;-69
2022/07/26 08:30:57;;;;;;;;;2.00;1.67;;;;;24.58;47.10;101410.81;5044838;28;46082;-69
2022/07/26 08:33:22;;;;;;;;;2.00;2.00;;;;;24.67;46.67;101393.47;5039926;28;45543;-68
2022/07/26 08:35:48;;;;;;;;;2.25;1.50;;;;;24.95;46.00;101411.78;5046211;28;45483;-70
2022/07/26 08:38:14;;;;;;;;;1.00;1.00;;;;;25.03;45.62;101406.06;5042897;28;46566;-72
2022/07/26 08:40:40;;;;;;;;;2.00;1.33;;;;;25.19;46.36;101420.50;5041137;28;45988;-68
2022/07/26 08:43:28;;;;;;;;;2.00;2.00;;;;;25.15;45.87;101397.44;5040927;28;45934;-71
2022/07/26 08:46:02;;;;;;;;;2.25;1.75;;;;;25.24;45.55;101399.69;5045817;28;45523;-72
2022/07/26 08:48:28;;;;;;;;;1.50;1.50;;;;;24.97;45.13;101349.16;5046341;28;46281;-71
2022/07/26 08:50:54;;;;;;;;;2.25;2.25;;;;;25.15;44.94;101360.78;5038783;28;45573;-72
2022/07/26 08:53:21;;;;;;;;;3.00;3.00;;;;;25.23;45.17;101364.94;5041531;28;45397;-70
2022/07/26 08:55:55;;;;;;;;;2.75;2.75;;;;;25.60;44.43;101410.44;5043164;28;45866;-70
2022/07/26 08:58:23;;;;;;;;;2.00;2.00;;;;;25.57;44.28;101417.75;5050160;28;46102;-70
2022/07/26 09:01:04;;;;;;;;;3.00;2.00;;;;;25.58;43.78;101416.81;5051394;28;45469;-71
2022/07/26 09:03:30;;;;;;;;;2.00;1.25;;;;;25.38;43.90;101391.84;5050684;28;45565;-70
2022/07/26 09:05:59;;;;;;;;;1.50;1.50;;;;;25.56;44.23;101413.34;5051534;28;45583;-70
2022/07/26 09:08:28;;;;;;;;;3.00;3.00;;;;;25.65;44.14;101412.88;5064237;28;45478;-71
2022/07/26 09:10:55;;;;;;;;;2.00;2.00;;;;;25.62;44.09;101414.84;5069952;28;45417;-71
2022/07/26 09:13:22;;;;;;;;;1.75;0.50;;;;;25.39;43.88;101385.53;5070019;28;45874;-71
2022/07/26 09:16:11;;;;;;;;;2.00;2.00;;;;;25.63;43.44;101420.13;5068420;28;45573;-71
2022/07/26 09:18:36;;;;;;;;;1.75;1.75;;;;;25.54;43.94;101420.59;5058522;28;46133;-72
2022/07/26 09:21:03;;;;;;;;;2.50;2.50;;;;;25.40;43.57;101399.81;5053383;28;45548;-71
2022/07/26 09:23:40;;;;;;;;;1.00;1.00;;;;;25.48;44.09;101424.44;5050698;28;45528;-72
2022/07/26 09:26:06;;;;;;;;;1.25;1.25;;;;;25.22;44.05;101390.00;5039389;28;45754;-71
2022/07/26 09:28:38;;;;;;;;;1.00;1.00;;;;;25.58;43.62;101438.28;5053410;28;46472;-71
2022/07/26 09:31:04;;;;;;;;;1.50;1.50;;;;;25.55;43.13;101425.84;5052951;28;45602;-70
2022/07/26 09:33:50;;;;;;;;;3.00;2.00;;;;;25.58;42.50;101419.50;5054183;28;45682;-72
2022/07/26 09:36:18;;;;;;;;;1.00;1.00;;;;;25.73;42.29;101442.84;5057318;28;45462;-70
2022/07/26 09:38:46;;;;;;;;;1.50;1.00;;;;;25.71;42.97;101434.00;5055591;28;46018;-71
2022/07/26 09:41:31;;;;;;;;;4.00;4.00;;;;;25.76;42.53;101437.31;5058207;28;45627;-70
2022/07/26 09:44:03;;;;;;;;;2.00;2.00;;;;;25.77;43.26;101440.91;5041484;28;45569;-71
2022/07/26 09:46:30;;;;;;;;;2.25;2.25;;;;;25.72;43.06;101443.81;5060838;28;45375;-71
2022/07/26 09:49:19;;;;;;;;;1.50;1.50;;;;;25.57;43.04;101428.47;5043429;28;45357;-71
2022/07/26 09:51:47;;;;;;;;;2.00;2.00;;;;;25.64;42.98;101448.69;5014933;28;45626;-71
2022/07/26 09:54:34;;;;;;;;;1.00;1.00;;;;;25.74;42.85;101455.31;5042889;28;45440;-71
2022/07/26 09:57:01;;;;;;;;;2.00;2.00;;;;;25.77;44.17;101457.88;5023865;28;45648;-69
2022/07/26 09:59:28;;;;;;;;;2.00;2.00;;;;;25.86;43.05;101445.81;5044158;28;46196;-69
2022/07/26 10:01:56;;;;;;;;;3.50;2.25;;;;;25.87;42.43;101444.03;5042739;28;45556;-70
2022/07/26 10:04:22;;;;;;;;;1.50;1.50;;;;;26.03;42.34;101455.72;5036637;28;45451;-70
2022/07/26 10:06:49;;;;;;;;;2.00;2.00;;;;;25.99;42.36;101443.38;5046831;28;45939;-69
2022/07/26 10:09:17;;;;;;;;;1.75;1.75;;;;;26.07;41.69;101442.97;5043957;28;45454;-70
2022/07/26 10:12:17;;;;;;;;;2.25;2.00;;;;;26.07;43.10;101448.34;5050433;28;45598;-70
2022/07/26 10:14:44;;;;;;;;;3.00;1.00;;;;;26.07;42.24;101442.97;5055250;28;45485;-70
2022/07/26 10:17:29;;;;;;;;;3.00;3.00;;;;;26.02;41.75;101454.81;5046217;28;45363;-70
2022/07/26 10:19:56;;;;;;;;;2.00;2.00;;;;;26.00;41.60;101456.72;5035411;28;46280;-69
2022/07/26 10:22:26;;;;;;;;;2.00;2.00;;;;;26.01;41.79;101452.22;5048837;28;45753;-69
2022/07/26 10:24:54;;;;;;;;;2.00;2.00;;;;;25.91;40.92;101438.41;5049455;28;45450;-70
2022/07/26 10:27:40;;;;;;;;;2.50;2.50;;;;;25.86;40.11;101410.94;5019275;28;45360;-71
2022/07/26 10:30:23;;;;;;;;;4.75;2.25;;;;;26.02;40.61;101448.59;5051193;28;45998;-71
2022/07/26 10:32:58;;;;;;;;;4.00;2.00;;;;;25.97;40.83;101439.91;5055580;28;45682;-71
2022/07/26 10:35:41;;;;;;;;;3.00;3.00;;;;;26.07;40.44;101456.41;5044837;28;45573;-72
2022/07/26 10:38:21;;;;;;;;;2.25;2.00;;;;;26.15;40.82;101451.50;5024232;28;45485;-71
2022/07/26 10:41:01;;;;;;;;;3.25;2.00;;;;;26.14;40.15;101444.41;5033900;28;47503;-72
2022/07/26 10:43:28;;;;;;;;;2.00;2.00;;;;;26.13;40.18;101448.03;5055547;28;45556;-73
2022/07/26 10:46:12;;;;;;;;;3.00;1.75;;;;;26.12;39.38;101447.16;5055276;28;45560;-73
2022/07/26 10:49:03;;;;;;;;;2.00;2.00;;;;;25.94;40.09;101454.34;5037249;28;45484;-71
2022/07/26 10:51:40;;;;;;;;;1.50;1.50;;;;;25.69;40.23;101394.81;5037639;28;46746;-71
2022/07/26 10:54:08;;;;;;;;;2.00;2.00;;;;;26.04;38.74;101424.38;5054636;28;45628;-71
2022/07/26 10:56:34;;;;;;;;;2.00;2.00;;;;;26.07;38.36;101411.63;5050408;28;45423;-71
2022/07/26 10:59:04;;;;;;;;;3.00;3.00;;;;;26.09;39.14;101408.88;5054569;28;45880;-71
2022/07/26 11:01:42;;;;;;;;;1.25;1.25;;;;;26.30;37.38;101414.94;5035666;28;46690;-73
2022/07/26 11:04:24;;;;;;;;;2.75;2.75;;;;;26.63;37.97;101448.06;5035915;28;45661;-73
2022/07/26 11:06:51;;;;;;;;;3.00;2.00;;;;;26.80;37.38;101432.84;5036065;28;45434;-72
2022/07/26 11:09:18;;;;;;;;;2.00;1.50;;;;;27.08;36.96;101441.09;5048859;28;45713;-74
2022/07/26 11:11:51;;;;;;;;;3.00;3.00;;;;;27.27;36.47;101442.81;5032910;28;47065;-75
2022/07/26 11:14:20;;;;;;;;;4.00;3.75;;;;;27.15;36.71;101395.94;5045354;28;45494;-73
2022/07/26 11:16:51;;;;;;;;;7.25;4.25;;;;;27.12;36.07;101382.63;5054707;28;45301;-73
2022/07/26 11:19:23;;;;;;;;;3.00;3.00;;;;;27.34;35.81;101417.28;5054702;28;45434;-73
2022/07/26 11:22:07;;;;;;;;;2.00;2.00;;;;;27.07;34.96;101364.09;5036920;28;47810;-70
2022/07/26 11:24:39;;;;;;;;;2.25;2.25;;;;;27.55;34.66;101419.66;5040681;28;45249;-69
2022/07/26 11:27:08;;;;;;;;;2.00;2.00;;;;;27.59;34.52;101387.09;5046848;28;45593;-69
2022/07/26 11:29:36;;;;;;;;;3.50;3.00;;;;;28.01;33.79;101438.50;5027474;28;45355;-70
2022/07/26 11:32:03;;;;;;;;;2.25;2.25;;;;;28.08;33.30;101404.88;5050799;28;46029;-69
2022/07/26 11:34:33;;;;;;;;;3.00;3.00;;;;;28.43;33.37;101421.56;5047766;28;46010;-71
2022/07/26 11:37:02;;;;;;;;;1.75;1.75;;;;;28.58;33.14;101425.13;5033365;28;46468;-72
2022/07/26 11:39:33;;;;;;;;;1.50;1.50;;;;;28.69;32.57;101422.63;5035633;28;45469;-70
2022/07/26 11:42:18;;;;;;;;;2.00;2.00;;;;;28.68;33.04;101396.63;5032214;28;46963;-70
2022/07/26 11:44:46;;;;;;;;;3.00;1.25;;;;;28.68;32.76;101391.25;5052564;28;45482;-71
2022/07/26 11:47:12;;;;;;;;;1.50;1.00;;;;;28.84;32.57;101425.31;5048334;28;45462;-69
2022/07/26 11:49:38;;;;;;;;;4.00;3.00;;;;;28.64;32.95;101411.28;5041841;28;45549;-69
2022/07/26 11:52:04;;;;;;;;;2.00;2.00;;;;;28.44;33.38;101408.94;5032835;28;46380;-68
2022/07/26 11:54:43;;;;;;;;;2.50;2.00;;;;;28.35;33.40;101421.16;5046210;28;45551;-69
2022/07/26 11:57:09;;;;;;;;;4.75;3.00;;;;;28.02;33.42;101395.31;5036884;28;45459;-68
2022/07/26 11:59:36;;;;;;;;;3.00;3.00;;;;;27.76;33.99;101369.94;5051750;28;45872;-72
2022/07/26 12:02:05;;;;;;;;;3.50;2.25;;;;;27.43;33.69;101327.97;5053108;28;45531;-70
2022/07/26 12:04:38;;;;;;;;;3.00;3.00;;;;;27.70;34.04;101395.41;5053582;28;45675;-71
2022/07/26 12:07:17;;;;;;;;;4.00;1.75;;;;;27.36;34.33;101360.69;5051619;28;45741;-71
2022/07/26 12:09:50;;;;;;;;;1.00;1.00;;;;;27.45;33.89;101382.56;5046215;28;46138;-70
2022/07/26 12:12:19;;;;;;;;;2.00;2.00;;;;;27.65;34.08;101421.75;5033622;28;47601;-70
2022/07/26 12:14:57;;;;;;;;;1.75;1.75;;;;;27.39;34.30;101404.44;5034094;28;45561;-71
2022/07/26 12:17:22;;;;;;;;;2.00;2.00;;;;;27.43;34.95;101427.50;5043592;28;45474;-70
2022/07/26 12:19:48;;;;;;;;;2.00;2.00;;;;;27.38;34.34;101426.03;5044153;28;45476;-70
2022/07/26 12:22:17;;;;;;;;;2.50;2.50;;;;;27.31;35.25;101422.81;5052466;28;45947;-71
2022/07/26 12:24:50;;;;;;;;;1.00;1.00;;;;;27.40;35.21;101421.44;5051563;28;45283;-72
2022/07/26 12:27:23;;;;;;;;;1.50;1.50;;;;;27.42;34.86;101423.06;5039932;28;45520;-69
2022/07/26 12:30:15;;;;;;;;;6.50;3.75;;;;;27.60;34.82;101420.28;5051535;28;45599;-69
2022/07/26 12:32:43;;;;;;;;;3.75;3.75;;;;;27.64;35.15;101421.81;5030737;28;46771;-69
2022/07/26 12:35:20;;;;;;;;;4.25;4.25;;;;;27.67;34.62;101421.66;5029174;28;45837;-70
2022/07/26 12:37:46;;;;;;;;;5.75;4.25;;;;;27.69;34.54;101425.09;5046778;28;45678;-70
2022/07/26 12:40:20;;;;;;;;;7.25;4.25;;;;;27.70;34.68;101426.84;5045662;28;45371;-69
2022/07/26 12:42:48;;;;;;;;;4.50;4.50;;;;;27.73;34.71;101425.78;5046981;28;46302;-70
2022/07/26 12:45:17;;;;;;;;;6.00;4.50;;;;;27.71;34.58;101415.13;5045597;28;45564;-69
2022/07/26 12:47:46;;;;;;;;;7.00;4.25;;;;;27.75;34.25;101415.81;5049175;28;45431;-70
2022/07/26 12:50:17;;;;;;;;;4.00;2.75;;;;;27.48;34.05;101374.31;5042166;28;45538;-71
2022/07/26 12:52:43;;;;;;;;;3.75;3.00;;;;;27.49;34.39;101394.84;5053284;28;45993;-70
2022/07/26 12:55:13;;;;;;;;;2.00;2.00;;;;;27.63;33.78;101414.72;5049354;28;45642;-71
2022/07/26 12:57:38;;;;;;;;;4.50;4.50;;;;;27.64;34.40;101413.75;5050404;28;45286;-72
2022/07/26 13:00:06;;;;;;;;;6.75;6.50;;;;;27.67;34.29;101394.75;5056745;28;45379;-69
2022/07/26 13:02:32;;;;;;;;;7.00;5.25;;;;;27.76;34.04;101410.31;5051243;28;46293;-69
2022/07/26 13:05:00;;;;;;;;;3.75;3.75;;;;;27.95;33.68;101404.72;5054729;28;45973;-71
2022/07/26 13:07:25;;;;;;;;;4.75;4.00;;;;;28.17;33.41;101392.69;5049208;28;45482;-70
2022/07/26 13:09:51;;;;;;;;;5.75;4.00;;;;;28.16;33.19;101378.31;5037322;28;45608;-69
2022/07/26 13:12:17;;;;;;;;;4.50;4.25;;;;;28.38;32.55;101388.66;5033711;28;46653;-69
2022/07/26 13:14:43;;;;;;;;;5.50;4.25;;;;;28.49;32.34;101398.75;5026583;28;45555;-71
2022/07/26 13:17:09;;;;;;;;;6.75;3.25;;;;;28.40;33.19;101357.06;5047476;28;45920;-70
2022/07/26 13:19:39;;;;;;;;;6.00;5.00;;;;;28.72;32.91;101389.22;5051019;28;45744;-70
2022/07/26 13:22:06;;;;;;;;;4.00;4.00;;;;;28.64;33.05;101368.16;5038285;28;46762;-72
2022/07/26 13:24:33;;;;;;;;;3.75;3.50;;;;;28.61;32.17;101365.66;5058242;28;45335;-72
2022/07/26 13:27:00;;;;;;;;;4.25;3.00;;;;;28.74;31.97;101390.00;5045087;28;45593;-68
2022/07/26 13:29:26;;;;;;;;;5.25;4.00;;;;;28.75;33.31;101387.19;5051856;28;45695;-69
2022/07/26 13:31:54;;;;;;;;;4.25;2.25;;;;;28.60;33.71;101379.25;5041844;28;45382;-70
2022/07/26 13:34:21;;;;;;;;;4.25;3.50;;;;;28.32;32.26;101343.22;5037292;28;45488;-70
2022/07/26 13:36:48;;;;;;;;;2.00;2.00;;;;;28.53;31.89;101384.16;5046752;28;45609;-69
2022/07/26 13:39:23;;;;;;;;;2.00;2.00;;;;;28.55;31.09;101376.84;5046312;28;45872;-69
2022/07/26 13:41:49;;;;;;;;;5.00;2.25;;;;;28.25;32.11;101331.97;5054084;28;45642;-69
2022/07/26 13:44:15;;;;;;;;;3.00;3.00;;;;;28.38;32.55;101371.59;5053193;28;45477;-70
2022/07/26 13:46:41;;;;;;;;;2.00;2.00;;;;;28.36;32.76;101360.03;5056342;28;45367;-69
2022/07/26 13:49:07;;;;;;;;;6.00;4.00;;;;;28.40;31.78;101369.66;5053163;28;45904;-70
2022/07/26 13:54:21;;;;;;;;;3.25;3.25;;;;;28.54;31.56;101364.31;5052960;28;45522;-71
2022/07/26 13:56:50;;;;;;;;;3.50;3.50;;;;;28.67;31.50;101359.00;5049964;28;45506;-69
2022/07/26 13:59:16;;;;;;;;;4.00;4.00;;;;;28.68;31.82;101372.38;5056335;28;45849;-70
2022/07/26 14:01:45;;;;;;;;;4.00;2.50;;;;;28.80;31.27;101364.47;5035973;28;47460;-70
2022/07/26 14:04:12;;;;;;;;;2.80;2.80;;;;;28.80;31.26;101359.06;5028131;28;45390;-70
2022/07/26 14:06:44;;;;;;;;;3.25;2.75;;;;;28.93;31.17;101365.41;5058088;28;45180;-68
2022/07/26 14:09:10;;;;;;;;;2.00;2.00;;;;;28.93;31.03;101362.72;5039091;28;45394;-69
2022/07/26 14:11:36;;;;;;;;;3.00;3.00;;;;;28.87;30.88;101355.00;5054438;28;45493;-70
2022/07/26 14:14:03;;;;;;;;;2.00;2.00;;;;;28.95;30.65;101364.34;5034442;28;45362;-69
2022/07/26 14:16:29;;;;;;;;;2.00;2.00;;;;;28.95;31.11;101358.09;5056926;28;45466;-69
2022/07/26 14:18:57;;;;;;;;;2.00;2.00;;;;;29.01;30.65;101362.22;5055876;28;45724;-69
2022/07/26 14:21:27;;;;;;;;;2.25;2.25;;;;;28.84;30.76;101356.09;5053167;28;46109;-70
2022/07/26 14:23:54;;;;;;;;;3.75;2.00;;;;;28.54;30.96;101331.97;5053504;28;45539;-70
2022/07/26 14:26:20;;;;;;;;;2.00;2.00;;;;;28.43;31.71;101350.66;5052531;28;45467;-69
2022/07/26 14:28:46;;;;;;;;;3.00;2.75;;;;;28.26;32.29;101359.75;5056344;28;45404;-69
2022/07/26 14:31:11;;;;;;;;;2.75;2.25;;;;;28.16;32.52;101364.00;5034472;28;47721;-69
2022/07/26 14:33:37;;;;;;;;;2.00;2.00;;;;;28.02;33.18;101360.31;5052587;28;45406;-71
2022/07/26 14:36:03;;;;;;;;;2.00;2.00;;;;;27.95;33.52;101366.19;5052437;28;45270;-68
2022/07/26 14:38:29;;;;;;;;;2.00;2.00;;;;;27.70;33.37;101338.91;5053478;28;45668;-70
2022/07/26 14:40:56;;;;;;;;;1.75;1.00;;;;;27.72;33.92;101371.13;5056482;28;46164;-69
2022/07/26 14:43:22;;;;;;;;;4.25;3.00;;;;;27.49;34.16;101351.81;5054309;28;45426;-70
2022/07/26 14:45:47;;;;;;;;;2.25;2.25;;;;;27.49;34.04;101372.47;5056419;28;45508;-68
2022/07/26 14:48:13;;;;;;;;;3.75;3.00;;;;;27.43;34.88;101370.13;5056276;28;45595;-68
2022/07/26 14:50:40;;;;;;;;;2.00;2.00;;;;;27.37;34.57;101368.69;5056822;28;45393;-69
2022/07/26 14:53:06;;;;;;;;;2.25;2.25;;;;;27.40;34.77;101376.56;5055969;28;45510;-69
2022/07/26 14:55:32;;;;;;;;;2.00;2.00;;;;;27.38;34.31;101367.72;5055482;28;45365;-69
2022/07/26 14:57:58;;;;;;;;;2.75;2.00;;;;;27.35;34.39;101361.66;5053867;28;45724;-68
2022/07/26 15:00:23;;;;;;;;;3.00;2.00;;;;;27.47;34.30;101372.56;5034574;28;46189;-69
2022/07/26 15:02:49;;;;;;;;;2.75;2.75;;;;;27.54;34.53;101359.63;5052768;28;45849;-70
2022/07/26 15:05:16;;;;;;;;;3.00;2.00;;;;;27.67;34.30;101371.38;5052872;28;45779;-70
2022/07/26 15:07:50;;;;;;;;;3.00;2.00;;;;;27.66;34.32;101360.72;5054000;28;45452;-70
2022/07/26 15:10:28;;;;;;;;;2.50;2.50;;;;;27.82;33.91;101364.22;5032679;28;46506;-70
2022/07/26 15:12:57;;;;;;;;;2.00;2.00;;;;;27.83;33.25;101382.09;5052579;28;45481;-71
2022/07/26 15:15:23;;;;;;;;;2.00;2.00;;;;;27.83;33.26;101370.47;5055000;28;45511;-70
2022/07/26 15:17:49;;;;;;;;;2.00;2.00;;;;;27.86;32.93;101373.88;5050906;28;45522;-70
2022/07/26 15:20:14;;;;;;;;;2.00;2.00;;;;;27.84;32.99;101364.16;5051829;28;45877;-69
2022/07/26 15:22:40;;;;;;;;;2.00;2.00;;;;;27.86;32.65;101363.09;5051530;28;45609;-68
2022/07/26 15:25:06;;;;;;;;;1.75;1.75;;;;;27.79;32.78;101353.63;5050680;28;45386;-68
2022/07/26 15:27:32;;;;;;;;;3.25;3.25;;;;;27.81;32.57;101365.19;5055780;28;45382;-69
2022/07/26 15:29:58;;;;;;;;;2.25;2.00;;;;;27.74;32.70;101362.94;5054598;28;45847;-69
2022/07/26 15:32:24;;;;;;;;;2.00;2.00;;;;;27.73;33.10;101356.69;5050049;28;45294;-69
2022/07/26 15:34:49;;;;;;;;;2.50;2.50;;;;;27.75;32.85;101367.38;5051565;28;45411;-70
2022/07/26 15:37:15;;;;;;;;;3.00;2.25;;;;;27.73;33.18;101356.69;5051267;28;45872;-68
2022/07/26 15:39:41;;;;;;;;;2.00;2.00;;;;;27.72;32.97;101354.97;5051944;28;46106;-69
2022/07/26 15:42:06;;;;;;;;;2.50;2.00;;;;;27.70;33.49;101356.88;5051015;28;45413;-68
2022/07/26 15:44:32;;;;;;;;;2.75;2.00;;;;;27.70;33.56;101360.44;5036587;28;45335;-69
2022/07/26 15:46:57;;;;;;;;;6.00;2.00;;;;;27.49;33.16;101327.59;5051907;28;45463;-69
2022/07/26 15:49:23;;;;;;;;;2.00;1.00;;;;;27.56;33.54;101356.84;5049593;28;45374;-67
2022/07/26 15:51:49;;;;;;;;;2.50;2.50;;;;;27.53;32.99;101347.13;5035282;28;45508;-70
2022/07/26 15:54:15;;;;;;;;;2.25;2.25;;;;;27.37;34.31;101349.84;5049526;28;45627;-70
2022/07/26 15:56:41;;;;;;;;;3.75;3.75;;;;;27.30;33.69;101344.94;5027849;28;45680;-69
2022/07/26 15:59:07;;;;;;;;;5.75;4.75;;;;;27.35;34.21;101354.44;5052252;28;46380;-69
2022/07/26 16:01:34;;;;;;;;;4.75;4.75;;;;;27.35;33.68;101343.69;5052678;28;45524;-69
2022/07/26 16:04:00;;;;;;;;;4.00;4.00;;;;;27.39;33.52;101344.41;5053363;28;45342;-68
2022/07/26 16:06:26;;;;;;;;;4.25;2.00;;;;;27.39;33.41;101339.00;5054141;28;45403;-71
2022/07/26 16:08:52;;;;;;;;;8.50;5.75;;;;;27.17;33.21;101315.16;5053101;28;45502;-70
2022/07/26 16:11:17;;;;;;;;;6.00;4.75;;;;;27.21;33.40;101324.81;5053382;28;45415;-71
2022/07/26 16:13:43;;;;;;;;;4.00;4.00;;;;;27.24;33.67;101344.34;5053468;28;45395;-70
2022/07/26 16:16:08;;;;;;;;;3.00;3.00;;;;;27.14;33.09;101334.16;5053794;28;45668;-72
2022/07/26 16:18:34;;;;;;;;;3.00;3.00;;;;;26.98;33.74;101329.69;5031810;28;46063;-70
2022/07/26 16:21:00;;;;;;;;;3.00;3.00;;;;;26.99;34.13;101319.78;5043858;28;45394;-69
2022/07/26 16:23:25;;;;;;;;;2.50;2.50;;;;;26.92;33.51;101313.91;5054189;28;45726;-70
2022/07/26 16:25:51;;;;;;;;;3.00;3.00;;;;;26.86;34.21;101316.91;5055324;28;45493;-68
2022/07/26 16:28:17;;;;;;;;;6.00;3.25;;;;;26.96;34.26;101338.78;5056489;28;45418;-70
2022/07/26 16:30:45;;;;;;;;;3.00;3.00;;;;;26.75;34.38;101297.88;5056115;28;45356;-68
2022/07/26 16:33:11;;;;;;;;;3.00;3.00;;;;;26.68;34.33;101297.34;5038256;28;45525;-68
2022/07/26 16:35:36;;;;;;;;;3.50;3.50;;;;;26.86;34.68;101339.31;5054205;28;45507;-72
2022/07/26 16:38:02;;;;;;;;;3.00;3.00;;;;;26.81;34.26;101325.28;5041807;28;45921;-71
2022/07/26 16:40:28;;;;;;;;;2.25;2.25;;;;;26.81;34.14;101330.66;5056328;28;45439;-69
2022/07/26 16:42:54;;;;;;;;;2.50;2.50;;;;;26.72;34.65;101319.53;5056102;28;45691;-70
2022/07/26 16:45:19;;;;;;;;;3.50;3.50;;;;;26.74;33.92;101321.22;5057834;28;45406;-70
2022/07/26 16:47:45;;;;;;;;;2.25;2.25;;;;;26.72;34.23;101327.59;5056218;28;45454;-70
2022/07/26 16:50:10;;;;;;;;;5.00;4.00;;;;;26.74;34.03;101339.13;5056861;28;45395;-71
2022/07/26 16:52:36;;;;;;;;;5.25;4.00;;;;;26.70;34.27;101324.16;5060893;28;45606;-70
2022/07/26 16:55:02;;;;;;;;;4.00;4.00;;;;;26.69;35.07;101327.78;5054856;28;45462;-70
2022/07/26 16:57:29;;;;;;;;;3.00;3.00;;;;;26.65;34.31;101325.28;5047359;28;47034;-72
2022/07/26 16:59:55;;;;;;;;;3.75;3.75;;;;;26.64;34.39;101328.03;5056136;28;45537;-70
2022/07/26 17:02:20;;;;;;;;;5.75;4.00;;;;;26.58;34.30;101314.97;5057266;28;45493;-72
2022/07/26 17:04:46;;;;;;;;;4.00;4.00;;;;;26.59;34.73;101330.09;5058618;28;45303;-71
2022/07/26 17:07:11;;;;;;;;;4.00;4.00;;;;;26.55;34.56;101324.06;5059639;28;46153;-69
2022/07/26 17:09:37;;;;;;;;;3.00;3.00;;;;;26.59;35.03;101325.59;5048122;28;45481;-70
2022/07/26 17:12:02;;;;;;;;;9.75;6.00;;;;;26.45;34.60;101317.41;5044583;28;45438;-69
2022/07/26 17:14:28;;;;;;;;;5.75;5.75;;;;;26.34;35.27;101314.44;5055679;28;45504;-70
2022/07/26 17:16:58;;;;;;;;;5.00;5.00;;;;;26.19;34.67;101287.47;5057782;28;46149;-71
2022/07/26 17:19:23;;;;;;;;;3.25;3.00;;;;;26.46;34.59;101324.53;5038490;28;45560;-71
2022/07/26 17:21:49;;;;;;;;;4.50;3.00;;;;;26.45;34.67;101328.16;5057211;28;45748;-72
2022/07/26 17:24:15;;;;;;;;;2.25;2.25;;;;;26.37;33.78;101314.28;5056821;28;45573;-73
2022/07/26 17:26:41;;;;;;;;;3.75;2.25;;;;;26.42;34.13;101328.34;5053108;28;45757;-70
2022/07/26 17:29:07;;;;;;;;;1.00;1.00;;;;;26.42;34.16;101326.50;5041470;28;45379;-71
2022/07/26 17:31:33;;;;;;;;;2.25;2.00;;;;;26.33;34.76;101328.84;5059818;28;45361;-72
2022/07/26 17:33:59;;;;;;;;;2.25;2.25;;;;;26.15;35.19;101307.41;5035164;28;45473;-69
2022/07/26 17:36:27;;;;;;;;;4.00;3.00;;;;;26.25;34.14;101325.72;5052984;28;45386;-77
2022/07/26 17:38:55;;;;;;;;;2.25;2.25;;;;;26.00;34.62;101284.06;5048724;28;45293;-71
2022/07/26 17:41:21;;;;;;;;;2.00;2.00;;;;;26.18;35.35;101311.75;5053354;28;45447;-69
2022/07/26 17:43:47;;;;;;;;;4.75;3.00;;;;;26.18;35.10;101312.59;5055220;28;45556;-71
2022/07/26 17:46:12;;;;;;;;;1.75;1.75;;;;;26.09;34.86;101296.13;5055056;28;46012;-70
2022/07/26 17:48:38;;;;;;;;;2.00;2.00;;;;;26.17;34.10;101308.19;5057983;28;45420;-69
2022/07/26 17:51:05;;;;;;;;;2.50;2.50;;;;;26.23;34.50;101312.34;5048939;28;45434;-71
2022/07/26 17:53:32;;;;;;;;;2.00;2.00;;;;;26.21;33.94;101311.56;5050510;28;45720;-69
2022/07/26 17:55:57;;;;;;;;;3.75;3.75;;;;;25.98;34.41;101277.91;5044839;28;45722;-71
2022/07/26 17:58:23;;;;;;;;;10.67;9.00;;;;;26.13;33.96;101316.50;5041541;28;45501;-72
2022/07/26 18:00:52;;;;;;;;;7.33;4.67;;;;;26.08;34.33;101313.19;5030684;28;46092;-71
2022/07/26 18:03:18;;;;;;;;;4.75;3.25;;;;;26.07;33.56;101315.00;5024208;28;45576;-69
2022/07/26 18:05:44;;;;;;;;;2.00;2.00;;;;;26.04;33.97;101317.00;5034907;28;45620;-71
2022/07/26 18:08:10;;;;;;;;;2.00;2.00;;;;;25.94;33.79;101305.88;5042647;28;45588;-72
2022/07/26 18:10:35;;;;;;;;;6.25;3.00;;;;;25.84;34.21;101297.44;5017487;28;45774;-69
2022/07/26 18:13:01;;;;;;;;;3.00;3.00;;;;;25.17;34.36;101173.97;5037602;28;45542;-70
2022/07/26 18:15:28;;;;;;;;;4.50;3.00;;;;;25.56;34.26;101261.31;5026293;28;46845;-70
2022/07/26 18:17:54;;;;;;;;;4.75;3.50;;;;;25.75;34.07;101308.66;5023977;28;45411;-69
2022/07/26 18:20:20;;;;;;;;;18.00;18.00;;;;;25.71;34.71;101309.75;5036099;28;45500;-71
2022/07/26 18:22:45;;;;;;;;;69.00;56.75;;;;;25.65;34.12;101305.59;5049992;28;45430;-70
2022/07/26 18:25:11;;;;;;;;;52.00;43.25;;;;;25.67;34.06;101314.38;5057144;28;45790;-70
2022/07/26 18:27:37;;;;;;;;;33.67;32.00;;;;;25.65;34.87;101304.69;5054475;28;45494;-70
2022/07/26 18:30:04;;;;;;;;;36.33;31.33;;;;;25.72;35.53;101306.09;5038092;28;45663;-69
2022/07/26 18:32:29;;;;;;;;;20.00;18.00;;;;;25.70;35.18;101305.31;5041138;28;45517;-69
2022/07/26 18:34:55;;;;;;;;;10.33;9.00;;;;;25.68;35.83;101309.91;5053542;28;45832;-69
2022/07/26 18:37:21;;;;;;;;;6.00;6.00;;;;;25.73;35.59;101318.59;5053901;28;45487;-71
2022/07/26 18:39:48;;;;;;;;;4.00;2.67;;;;;25.73;35.21;101316.75;5036301;28;45371;-71
2022/07/26 18:42:14;;;;;;;;;2.00;2.00;;;;;25.70;35.62;101311.56;5054279;28;45570;-72
2022/07/26 18:44:40;;;;;;;;;16.33;16.33;;;;;25.70;36.20;101322.31;5053753;28;46105;-71
2022/07/26 18:47:07;;;;;;;;;14.33;14.33;;;;;25.48;36.00;101290.34;5054189;28;45686;-72
2022/07/26 18:49:33;;;;;;;;;10.00;10.00;;;;;25.52;36.01;101324.09;5057691;28;45405;-71
2022/07/26 18:52:00;;;;;;;;;8.33;6.00;;;;;25.46;35.87;101310.13;5053932;28;45421;-71
2022/07/26 18:54:27;;;;;;;;;4.00;4.00;;;;;25.54;36.52;101329.41;5053323;28;45511;-69
2022/07/26 18:56:53;;;;;;;;;4.25;4.00;;;;;25.49;36.41;101329.63;5041601;28;45531;-72
2022/07/26 18:59:19;;;;;;;;;5.00;4.00;;;;;25.44;36.10;101320.06;5054651;28;45601;-73
2022/07/26 19:01:44;;;;;;;;;3.00;3.00;;;;;25.50;36.07;101331.34;5039615;28;45370;-72
2022/07/26 19:04:10;;;;;;;;;2.25;2.25;;;;;25.49;36.61;101337.69;5056851;28;45838;-71
2022/07/26 19:06:39;;;;;;;;;2.50;2.50;;;;;25.34;37.65;101311.63;5038587;28;45835;-72
2022/07/26 19:09:05;;;;;;;;;4.00;3.33;;;;;25.44;38.84;101334.38;5036305;28;45732;-71
2022/07/26 19:11:40;;;;;;;;;4.50;2.75;;;;;25.43;38.70;101339.78;5036607;28;45427;-71
2022/07/26 19:14:08;;;;;;;;;4.00;3.00;;;;;25.39;38.22;101344.47;5053023;28;46424;-72
2022/07/26 19:16:52;;;;;;;;;6.00;4.00;;;;;25.33;38.15;101350.97;5054476;28;45709;-72
2022/07/26 19:19:18;;;;;;;;;6.00;6.00;;;;;25.26;37.19;101338.84;5026213;28;45403;-70
2022/07/26 19:21:47;;;;;;;;;6.00;5.00;;;;;25.24;37.74;101342.53;5047611;28;45339;-73
2022/07/26 19:24:12;;;;;;;;;7.00;7.00;;;;;25.09;37.84;101336.09;5033728;28;47655;-71
2022/07/26 19:26:38;;;;;;;;;7.00;6.00;;;;;25.07;38.00;101325.44;5034096;28;45704;-71
2022/07/26 19:29:04;;;;;;;;;4.00;4.00;;;;;25.08;38.41;101337.91;5039127;28;45725;-71
2022/07/26 19:31:30;;;;;;;;;3.00;3.00;;;;;25.08;37.39;101340.59;5050353;28;45588;-73
2022/07/26 19:33:56;;;;;;;;;2.00;2.00;;;;;25.07;37.95;101346.88;5030567;28;46027;-71
2022/07/26 19:36:22;;;;;;;;;5.00;3.00;;;;;25.02;37.87;101348.94;5042230;28;45411;-72
2022/07/26 19:38:47;;;;;;;;;2.67;1.67;;;;;25.07;37.97;101359.41;5041266;28;45505;-71
2022/07/26 19:41:13;;;;;;;;;2.00;2.00;;;;;24.98;38.09;101353.56;5047611;28;45560;-71